Terminal Aerodrome Forecast
Issued by NWS Sioux Falls, SD

Home | Current Version | Previous Version | Graphics & Text | Print | Product List | Glossary On
Versions: 1 2 3 4 5 6 7 8 9 10 11 12 13 14 15 16 17 18 19
000
FTUS43 KFSD 241400 AAA
TAFHON
TAF AMD
KHON 241406Z 2414/2512 15012G18KT P6SM SCT070 BKN120
      TEMPO 2414/2416 6SM TSRA BKN060CB
     FM241700 16020G27KT P6SM SCT045 BKN200
     FM250300 14012KT P6SM BKN120
     FM250900 17008KT P6SM BKN150=

USA.gov is the U.S. government's official web portal to all federal, state and local government web resources and services.